Alsbach, Germany

12:20 PM CET on February 08, 2016 (GMT +0100)
Deizisau | | Change Station
CLOSE
Current Station
Personal Weather Station
Location: Deizisau, BADEN-WüRTTEMBERG
Elevation: 804 ft
Nearby Weather Stations

Elev 804 ft 48.71 °N, 9.38 °E | Updated 18 seconds ago

Mostly Cloudy
Mostly Cloudy
55.2 °F
Feels Like 55.2 °F
N
7.4
Wind Variable Wind from West
Gusts 9.8 mph

Today
High -- | Low -- °F
--% Chance of Precip.
Yesterday
High -- | Low -- °F
Precip. -- in
Pressure 29.56 in
Visibility 6.2 miles
Clouds Few 4600 ft
Mostly Cloudy 25000 ft
Dew Point 36 °F
Humidity 48%
Rainfall 0.00 in
Snow Depth Not available.
7:43 AM 5:30 PM
Waning Crescent, 0% visible
METAR EDDS 081050Z 21018G31KT 180V240 9999 FEW046 BKN250 11/02 Q1001 NOSIG
Pressure 29.56 in
Visibility 6.2 miles
Clouds Few 4600 ft
Mostly Cloudy 25000 ft
Dew Point 36 °F
Humidity 48%
Rainfall 0.00 in
Snow Depth Not available.
7:43 AM 5:30 PM
Waning Crescent, 0% visible
METAR EDDS 081050Z 21018G31KT 180V240 9999 FEW046 BKN250 11/02 Q1001 NOSIG

10-Day Weather Forecast

Almanac

Astronomy

Feb. 08, 2016 Rise Set
Actual Time
Civil Twilight
Nautical Twilight
Astronomical Twilight
Moon
Length of Visible Light
Length of Day
Tomorrow will be .
, % of the Moon is Illuminated

Today's Extremes

Country Highs Country Lows

Community

WunderPhotos

Upload Photos

1,891,420 photos uploaded!

WunderBlog® & News

Nearby

Air Quality

  Air Quality AQ Index Pollutant
Not available.

Snow Depth

Station Depth Elevation

Earthquake Activity

City Distance Mag. Time & Date
Minimum magnitude displayed is 2.5.

Coastal Water Temperatures

Place Temperature

Stations

Nearby Weather Stations

Station Location Temp. Windchill Dew Point Humidity Wind Precip. Elev Updated Type